Time;durP1;ratioP1;P1;durP2;ratioP2;P2;SDS_P1;SDS_P2;PMS_P1;PMS_P2;Temp;Humidity;BMP_temperature;BMP_pressure;BME280_temperature;BME280_humidity;BME280_pressure;Samples;Min_cycle;Max_cycle;Signal;HPM_P1;HPM_P2
2023/10/19 00:01:25;;;;;;;;;;;7.70;99.90;;;;;;5032086;28;19938;-91
2023/10/19 00:03:53;;;;;;;;;;;7.60;99.90;;;;;;5022604;28;20467;-91
2023/10/19 00:06:18;;;;;;;;;;;7.70;99.90;;;;;;5006125;28;20011;-90
2023/10/19 00:08:44;;;;;;;;;;;7.10;99.90;;;;;;5022234;28;19962;-89
2023/10/19 00:11:11;;;;;;;;;;;7.60;99.90;;;;;;5006034;28;19917;-88
2023/10/19 00:13:40;;;;;;;;;;;7.60;99.90;;;;;;5024741;28;20263;-90
2023/10/19 00:16:16;;;;;;;;;;;7.60;99.90;;;;;;5027833;28;19916;-91
2023/10/19 00:18:43;;;;;;;;;;;7.60;99.90;;;;;;5016254;28;20379;-90
2023/10/19 00:21:19;;;;;;;;;;;7.50;99.90;;;;;;5003947;28;19917;-89
2023/10/19 00:23:49;;;;;;;;;;;7.50;99.90;;;;;;5022707;28;19917;-90
2023/10/19 00:26:17;;;;;;;;;;;7.60;99.90;;;;;;5039957;28;19916;-89
2023/10/19 00:28:45;;;;;;;;;;;7.50;99.90;;;;;;5022281;28;19939;-88
2023/10/19 00:31:11;;;;;;;;;;;7.50;99.90;;;;;;5042136;28;20348;-86
2023/10/19 00:33:40;;;;;;;;;;;7.40;99.90;;;;;;5053271;28;19923;-91
2023/10/19 00:36:13;;;;;;;;;;;7.40;99.90;;;;;;5023858;28;19939;-89
2023/10/19 00:38:39;;;;;;;;;;;7.50;99.90;;;;;;5048987;28;19916;-91
2023/10/19 00:41:07;;;;;;;;;;;7.30;99.90;;;;;;5018249;28;19927;-91
2023/10/19 00:43:36;;;;;;;;;;;7.40;99.90;;;;;;5017032;28;20149;-91
2023/10/19 00:46:03;;;;;;;;;;;7.50;99.90;;;;;;5023808;28;19924;-93
2023/10/19 00:48:29;;;;;;;;;;;7.50;99.90;;;;;;5021435;28;19917;-87
2023/10/19 00:51:06;;;;;;;;;;;7.40;99.90;;;;;;5036610;28;19916;-89
2023/10/19 00:53:37;;;;;;;;;;;7.40;99.90;;;;;;5026569;28;19935;-89
2023/10/19 00:56:05;;;;;;;;;;;7.50;99.90;;;;;;5033574;28;19920;-93
2023/10/19 00:58:35;;;;;;;;;;;7.40;99.90;;;;;;5027435;28;19920;-92
2023/10/19 01:01:05;;;;;;;;;;;7.30;99.90;;;;;;5027839;28;19917;-92
2023/10/19 01:03:38;;;;;;;;;;;7.40;99.90;;;;;;5022488;28;19916;-89
2023/10/19 01:06:09;;;;;;;;;;;7.30;99.90;;;;;;5034929;28;19916;-86
2023/10/19 01:08:41;;;;;;;;;;;7.50;99.90;;;;;;5020243;28;19920;-92
2023/10/19 01:11:15;;;;;;;;;;;7.40;99.90;;;;;;5040473;28;19917;-92
2023/10/19 01:13:44;;;;;;;;;;;7.30;99.90;;;;;;5023501;28;19958;-89
2023/10/19 01:16:26;;;;;;;;;;;7.30;99.90;;;;;;5041945;28;19916;-86
2023/10/19 01:18:55;;;;;;;;;;;6.60;99.90;;;;;;5036843;28;20175;-90
2023/10/19 01:21:36;;;;;;;;;;;7.30;99.90;;;;;;5029236;28;19980;-88
2023/10/19 01:24:07;;;;;;;;;;;7.50;99.90;;;;;;5028976;28;19920;-91
2023/10/19 01:26:37;;;;;;;;;;;7.40;99.90;;;;;;5042364;28;19947;-91
2023/10/19 01:29:13;;;;;;;;;;;7.40;99.90;;;;;;5058438;28;19920;-90
2023/10/19 01:31:50;;;;;;;;;;;7.30;99.90;;;;;;5040788;28;20279;-90
2023/10/19 01:34:19;;;;;;;;;;;7.50;99.90;;;;;;5020853;28;20321;-92
2023/10/19 01:36:49;;;;;;;;;;;7.40;99.90;;;;;;5037841;28;20432;-92
2023/10/19 01:39:15;;;;;;;;;;;7.30;99.90;;;;;;5051827;28;20264;-91
2023/10/19 01:41:41;;;;;;;;;;;7.30;99.90;;;;;;5028402;28;19926;-87
2023/10/19 01:44:07;;;;;;;;;;;7.30;99.90;;;;;;5040551;28;19977;-86
2023/10/19 01:46:34;;;;;;;;;;;7.30;99.90;;;;;;5060170;28;19920;-91
2023/10/19 01:49:01;;;;;;;;;;;7.40;99.90;;;;;;5058262;28;19965;-86
2023/10/19 01:51:28;;;;;;;;;;;7.30;99.90;;;;;;5019015;28;19916;-89
2023/10/19 01:53:57;;;;;;;;;;;7.40;99.90;;;;;;5022826;28;19917;-91
2023/10/19 01:56:23;;;;;;;;;;;7.30;99.90;;;;;;5039948;28;20282;-86
2023/10/19 01:58:51;;;;;;;;;;;7.30;99.90;;;;;;5039726;28;19931;-88
2023/10/19 02:01:20;;;;;;;;;;;7.40;99.90;;;;;;5022628;28;19923;-89
2023/10/19 02:03:47;;;;;;;;;;;7.40;99.90;;;;;;5056936;28;20677;-91
2023/10/19 02:06:17;;;;;;;;;;;7.40;99.90;;;;;;5056249;28;19963;-90
2023/10/19 02:08:50;;;;;;;;;;;7.30;99.90;;;;;;5035943;28;20046;-91
2023/10/19 02:11:18;;;;;;;;;;;7.20;99.90;;;;;;5052383;28;20034;-86
2023/10/19 02:13:49;;;;;;;;;;;7.40;99.90;;;;;;5032997;28;19916;-90
2023/10/19 02:16:36;;;;;;;;;;;7.30;99.90;;;;;;5052356;28;19916;-91
2023/10/19 02:19:02;;;;;;;;;;;7.30;99.90;;;;;;5053149;28;19966;-93
2023/10/19 02:21:32;;;;;;;;;;;7.30;99.90;;;;;;5034429;28;20382;-91
2023/10/19 02:23:57;;;;;;;;;;;7.40;99.90;;;;;;5039152;28;19924;-90
2023/10/19 02:26:27;;;;;;;;;;;7.20;99.90;;;;;;5064646;28;19916;-92
2023/10/19 02:28:53;;;;;;;;;;;7.30;99.90;;;;;;5055897;28;19923;-88
2023/10/19 02:31:22;;;;;;;;;;;7.30;99.90;;;;;;5039803;28;19916;-93
2023/10/19 02:34:00;;;;;;;;;;;7.30;99.90;;;;;;5039628;28;20616;-93
2023/10/19 02:36:29;;;;;;;;;;;7.30;99.90;;;;;;5048882;28;20275;-90
2023/10/19 02:38:58;;;;;;;;;;;7.40;99.90;;;;;;5040332;28;20359;-88
2023/10/19 02:41:24;;;;;;;;;;;7.30;99.90;;;;;;5039178;28;19935;-88
2023/10/19 02:44:08;;;;;;;;;;;7.40;99.90;;;;;;5022551;28;19916;-93
2023/10/19 02:46:34;;;;;;;;;;;7.20;99.90;;;;;;5056096;28;19989;-88
2023/10/19 02:49:00;;;;;;;;;;;7.30;99.90;;;;;;5039230;28;19951;-88
2023/10/19 02:51:26;;;;;;;;;;;7.40;99.90;;;;;;5058764;28;20355;-90
2023/10/19 02:53:52;;;;;;;;;;;7.30;99.90;;;;;;5037664;28;19920;-93
2023/10/19 02:56:18;;;;;;;;;;;7.30;99.90;;;;;;5021755;28;19943;-89
2023/10/19 02:58:48;;;;;;;;;;;7.40;99.90;;;;;;5024846;28;19916;-90
2023/10/19 03:01:24;;;;;;;;;;;7.30;99.90;;;;;;5023379;28;19999;-91
2023/10/19 03:03:50;;;;;;;;;;;7.20;99.90;;;;;;5026586;28;19923;-91
2023/10/19 03:06:23;;;;;;;;;;;7.30;99.90;;;;;;5024226;28;19923;-91
2023/10/19 03:08:55;;;;;;;;;;;7.30;99.90;;;;;;5014873;28;19916;-88
2023/10/19 03:11:21;;;;;;;;;;;7.40;99.90;;;;;;5027759;28;19920;-93
2023/10/19 03:13:50;;;;;;;;;;;7.40;99.90;;;;;;5038204;28;19917;-93
2023/10/19 03:16:16;;;;;;;;;;;7.30;99.90;;;;;;5038861;28;20355;-91
2023/10/19 03:18:42;;;;;;;;;;;7.40;99.90;;;;;;5023685;28;19917;-90
2023/10/19 03:21:07;;;;;;;;;;;7.30;99.90;;;;;;5037073;28;19917;-89
2023/10/19 03:23:34;;;;;;;;;;;7.30;99.90;;;;;;5038700;28;19916;-88
2023/10/19 03:26:22;;;;;;;;;;;7.40;99.90;;;;;;5043900;28;19917;-89
2023/10/19 03:28:49;;;;;;;;;;;8.50;99.90;;;;;;5037828;28;20016;-90
2023/10/19 03:31:17;;;;;;;;;;;7.40;99.90;;;;;;5021515;28;20271;-89
2023/10/19 03:33:48;;;;;;;;;;;7.40;99.90;;;;;;5028738;28;19916;-92
2023/10/19 03:36:14;;;;;;;;;;;7.40;99.90;;;;;;5039050;28;19924;-89
2023/10/19 03:38:40;;;;;;;;;;;7.40;99.90;;;;;;5030522;28;20143;-90
2023/10/19 03:41:07;;;;;;;;;;;7.30;99.90;;;;;;5024897;28;19956;-88
2023/10/19 03:43:33;;;;;;;;;;;7.40;99.90;;;;;;5049680;28;19921;-87
2023/10/19 03:46:04;;;;;;;;;;;7.30;99.90;;;;;;5047955;28;20002;-88
2023/10/19 03:48:36;;;;;;;;;;;7.30;99.90;;;;;;5040297;28;19924;-88
2023/10/19 03:51:03;;;;;;;;;;;7.30;99.90;;;;;;5019338;28;20020;-89
2023/10/19 03:53:30;;;;;;;;;;;7.40;99.90;;;;;;5040925;28;20359;-86
2023/10/19 03:55:56;;;;;;;;;;;7.50;99.90;;;;;;5037740;28;19930;-89
2023/10/19 03:58:22;;;;;;;;;;;7.30;99.90;;;;;;5037332;28;19916;-90
2023/10/19 04:00:51;;;;;;;;;;;7.50;99.90;;;;;;5038179;28;19917;-89
2023/10/19 04:03:17;;;;;;;;;;;7.50;99.90;;;;;;5037588;28;20338;-87
2023/10/19 04:05:46;;;;;;;;;;;7.50;99.90;;;;;;5044522;28;19920;-90
2023/10/19 04:08:20;;;;;;;;;;;7.30;99.90;;;;;;5021758;28;19990;-87
2023/10/19 04:11:07;;;;;;;;;;;7.40;99.90;;;;;;5038001;28;19916;-91
2023/10/19 04:13:32;;;;;;;;;;;7.50;99.90;;;;;;5052044;28;19916;-92
2023/10/19 04:15:57;;;;;;;;;;;7.40;99.90;;;;;;5021489;28;20001;-92
2023/10/19 04:18:25;;;;;;;;;;;7.50;99.90;;;;;;5039527;28;19916;-94
2023/10/19 04:20:55;;;;;;;;;;;7.40;99.90;;;;;;5037948;28;19923;-87
2023/10/19 04:23:21;;;;;;;;;;;7.40;99.90;;;;;;5049465;28;20006;-92
2023/10/19 04:25:47;;;;;;;;;;;7.50;99.90;;;;;;5045196;28;20462;-92
2023/10/19 04:28:21;;;;;;;;;;;7.60;99.90;;;;;;5045088;28;19952;-89
2023/10/19 04:30:48;;;;;;;;;;;7.40;99.90;;;;;;5021631;28;19998;-87
2023/10/19 04:33:16;;;;;;;;;;;7.60;99.90;;;;;;5040938;28;19923;-91
2023/10/19 04:35:42;;;;;;;;;;;7.40;99.90;;;;;;5026092;28;19942;-89
2023/10/19 04:38:08;;;;;;;;;;;7.40;99.90;;;;;;5026351;28;19917;-90
2023/10/19 04:40:33;;;;;;;;;;;7.60;99.90;;;;;;5025065;28;19920;-87
2023/10/19 04:43:03;;;;;;;;;;;7.50;99.90;;;;;;5045433;28;19938;-94
2023/10/19 04:45:29;;;;;;;;;;;7.40;99.90;;;;;;5052628;28;19938;-89
2023/10/19 04:47:55;;;;;;;;;;;7.60;99.90;;;;;;5047744;28;19923;-89
2023/10/19 04:50:21;;;;;;;;;;;7.50;99.90;;;;;;5016507;28;20357;-90
2023/10/19 04:52:47;;;;;;;;;;;7.60;99.90;;;;;;5041587;28;20302;-87
2023/10/19 04:55:13;;;;;;;;;;;7.50;99.90;;;;;;5057635;28;19920;-87
2023/10/19 04:57:38;;;;;;;;;;;7.60;99.90;;;;;;5013948;28;20401;-92
2023/10/19 05:00:04;;;;;;;;;;;7.50;99.90;;;;;;5039599;28;19999;-91
2023/10/19 05:02:30;;;;;;;;;;;7.60;99.90;;;;;;5035804;28;20054;-90
2023/10/19 05:04:56;;;;;;;;;;;7.60;99.90;;;;;;5046418;28;20379;-90
2023/10/19 05:07:21;;;;;;;;;;;7.40;99.90;;;;;;5041383;28;19916;-90
2023/10/19 05:09:47;;;;;;;;;;;7.50;99.90;;;;;;5024585;28;19920;-93
2023/10/19 05:12:14;;;;;;;;;;;7.60;99.90;;;;;;5058975;28;19963;-93
2023/10/19 05:14:41;;;;;;;;;;;7.50;99.90;;;;;;5028398;28;19952;-92
2023/10/19 05:17:08;;;;;;;;;;;7.70;99.90;;;;;;5034920;28;20031;-91
2023/10/19 05:19:35;;;;;;;;;;;7.50;99.90;;;;;;5060216;28;19920;-90
2023/10/19 05:22:01;;;;;;;;;;;7.70;99.90;;;;;;5039942;28;19985;-94
2023/10/19 05:24:27;;;;;;;;;;;7.50;99.90;;;;;;5031012;28;19932;-93
2023/10/19 05:26:53;;;;;;;;;;;7.50;99.90;;;;;;5006500;28;19917;-93
2023/10/19 05:29:20;;;;;;;;;;;7.60;99.90;;;;;;5023957;28;19917;-93
2023/10/19 05:31:45;;;;;;;;;;;7.50;99.90;;;;;;5022662;28;19999;-90
2023/10/19 05:34:11;;;;;;;;;;;7.50;99.90;;;;;;5020666;28;20006;-95
2023/10/19 05:36:37;;;;;;;;;;;7.70;99.90;;;;;;5008357;28;20352;-94
2023/10/19 05:39:07;;;;;;;;;;;7.60;99.90;;;;;;5006345;28;19928;-93
2023/10/19 05:41:34;;;;;;;;;;;7.80;99.90;;;;;;5009391;28;19936;-96
2023/10/19 05:43:59;;;;;;;;;;;7.80;99.90;;;;;;5023706;28;19917;-93
2023/10/19 05:46:25;;;;;;;;;;;7.50;99.90;;;;;;5014006;28;19917;-90
2023/10/19 05:48:52;;;;;;;;;;;7.60;99.90;;;;;;5022545;28;20279;-90
2023/10/19 05:51:18;;;;;;;;;;;7.70;99.90;;;;;;5018428;28;19918;-92
2023/10/19 05:53:44;;;;;;;;;;;7.80;99.90;;;;;;5003679;28;20394;-94
2023/10/19 05:56:11;;;;;;;;;;;7.60;99.90;;;;;;5010062;28;20015;-92
2023/10/19 05:58:36;;;;;;;;;;;7.60;99.90;;;;;;5018758;28;20305;-93
2023/10/19 06:01:02;;;;;;;;;;;7.60;99.90;;;;;;5033067;28;19920;-93
2023/10/19 06:03:28;;;;;;;;;;;7.50;99.90;;;;;;5003728;28;19921;-89
2023/10/19 06:05:56;;;;;;;;;;;7.50;99.90;;;;;;5016262;28;19917;-92
2023/10/19 06:08:22;;;;;;;;;;;6.30;99.90;;;;;;5021056;28;19917;-90
2023/10/19 06:10:54;;;;;;;;;;;7.50;99.90;;;;;;5020001;28;19967;-93
2023/10/19 06:13:20;;;;;;;;;;;7.50;99.90;;;;;;5023256;28;19917;-93
2023/10/19 06:15:46;;;;;;;;;;;7.70;99.90;;;;;;5021048;28;20328;-91
2023/10/19 06:18:13;;;;;;;;;;;7.60;99.90;;;;;;5018608;28;19924;-90
2023/10/19 06:20:43;;;;;;;;;;;7.50;99.90;;;;;;5024666;28;19966;-92
2023/10/19 06:23:13;;;;;;;;;;;7.70;99.90;;;;;;5025202;28;19920;-94
2023/10/19 06:25:39;;;;;;;;;;;7.70;99.90;;;;;;5015049;28;20481;-88
2023/10/19 06:28:05;;;;;;;;;;;8.10;99.90;;;;;;5019741;28;19959;-89
2023/10/19 06:30:31;;;;;;;;;;;7.60;99.90;;;;;;5023817;28;19916;-94
2023/10/19 06:33:00;;;;;;;;;;;7.60;99.90;;;;;;5020413;28;19917;-93
2023/10/19 06:35:27;;;;;;;;;;;7.50;99.90;;;;;;5000842;28;19924;-93
2023/10/19 06:37:54;;;;;;;;;;;7.70;99.90;;;;;;5017666;28;19970;-92
2023/10/19 06:40:21;;;;;;;;;;;7.60;99.90;;;;;;5029396;28;19917;-92
2023/10/19 06:42:47;;;;;;;;;;;7.60;99.90;;;;;;5017018;28;19928;-92
2023/10/19 06:45:14;;;;;;;;;;;7.70;99.90;;;;;;5029014;28;20407;-94
2023/10/19 06:47:40;;;;;;;;;;;7.50;99.90;;;;;;5019649;28;19916;-93
2023/10/19 06:50:10;;;;;;;;;;;7.50;99.90;;;;;;5020256;28;19939;-91
2023/10/19 06:52:36;;;;;;;;;;;7.80;99.90;;;;;;5023109;28;19916;-91
2023/10/19 06:55:19;;;;;;;;;;;7.60;99.90;;;;;;5005750;28;19959;-91
2023/10/19 06:57:48;;;;;;;;;;;7.00;99.90;;;;;;5021767;28;19917;-91
2023/10/19 07:00:14;;;;;;;;;;;7.60;99.90;;;;;;5021185;28;19971;-88
2023/10/19 07:02:45;;;;;;;;;;;7.60;99.90;;;;;;5036115;28;19920;-90
2023/10/19 07:05:11;;;;;;;;;;;7.70;99.90;;;;;;5021577;28;19920;-91
2023/10/19 07:07:41;;;;;;;;;;;7.60;99.90;;;;;;5026309;28;19934;-91
2023/10/19 07:10:08;;;;;;;;;;;7.80;99.90;;;;;;5019831;28;20356;-91
2023/10/19 07:12:34;;;;;;;;;;;7.80;99.90;;;;;;5022197;28;19948;-92
2023/10/19 07:15:00;;;;;;;;;;;7.80;99.90;;;;;;5014175;28;19988;-92
2023/10/19 07:17:27;;;;;;;;;;;7.70;99.90;;;;;;5023354;28;19940;-87
2023/10/19 07:19:53;;;;;;;;;;;7.80;99.90;;;;;;5019490;28;19928;-93
2023/10/19 07:22:22;;;;;;;;;;;7.80;99.90;;;;;;5025874;28;19921;-92
2023/10/19 07:24:51;;;;;;;;;;;7.80;99.90;;;;;;5018344;28;20485;-89
2023/10/19 07:27:19;;;;;;;;;;;7.90;99.90;;;;;;5003644;28;19917;-91
2023/10/19 07:29:47;;;;;;;;;;;7.70;99.90;;;;;;5019045;28;20541;-90
2023/10/19 07:32:13;;;;;;;;;;;7.60;99.90;;;;;;5020028;28;19924;-94
2023/10/19 07:34:39;;;;;;;;;;;7.60;99.90;;;;;;5004262;28;19916;-93
2023/10/19 07:37:07;;;;;;;;;;;7.70;99.90;;;;;;5022987;28;20384;-91
2023/10/19 07:39:33;;;;;;;;;;;7.80;99.90;;;;;;5004132;28;19920;-93
2023/10/19 07:41:59;;;;;;;;;;;7.90;99.90;;;;;;5035893;28;19920;-92
2023/10/19 07:44:25;;;;;;;;;;;7.80;99.90;;;;;;5025229;28;19966;-94
2023/10/19 07:46:51;;;;;;;;;;;7.60;99.90;;;;;;5003229;28;19924;-89
2023/10/19 07:49:17;;;;;;;;;;;7.70;99.90;;;;;;5019732;28;20414;-91
2023/10/19 07:51:47;;;;;;;;;;;7.80;99.90;;;;;;5019077;28;19925;-94
2023/10/19 07:54:13;;;;;;;;;;;7.70;99.90;;;;;;5002550;28;20292;-93
2023/10/19 07:56:39;;;;;;;;;;;7.60;99.90;;;;;;5018663;28;19939;-91
2023/10/19 07:59:06;;;;;;;;;;;6.50;99.90;;;;;;5020534;28;20355;-91
2023/10/19 08:01:32;;;;;;;;;;;7.60;99.90;;;;;;5014722;28;20342;-94
2023/10/19 08:03:59;;;;;;;;;;;7.30;99.90;;;;;;5024311;28;19923;-91
2023/10/19 08:06:26;;;;;;;;;;;7.60;99.90;;;;;;5001102;28;20356;-90
2023/10/19 08:08:52;;;;;;;;;;;7.60;99.90;;;;;;5008992;28;19924;-95
2023/10/19 08:11:18;;;;;;;;;;;7.60;99.90;;;;;;5011166;28;19928;-93
2023/10/19 08:13:44;;;;;;;;;;;7.60;99.90;;;;;;5006193;28;19921;-95
2023/10/19 08:16:12;;;;;;;;;;;7.90;99.90;;;;;;5006420;28;19920;-92
2023/10/19 08:18:37;;;;;;;;;;;7.70;99.90;;;;;;5039467;28;19921;-91
2023/10/19 08:21:03;;;;;;;;;;;7.60;99.90;;;;;;5020259;28;20395;-92
2023/10/19 08:23:31;;;;;;;;;;;7.80;99.90;;;;;;5014803;28;19996;-90
2023/10/19 08:25:57;;;;;;;;;;;7.60;99.90;;;;;;5032674;28;20387;-93
2023/10/19 08:28:23;;;;;;;;;;;7.70;99.90;;;;;;5036288;28;20421;-92
2023/10/19 08:31:00;;;;;;;;;;;7.60;99.90;;;;;;5036378;28;19916;-90
2023/10/19 08:33:26;;;;;;;;;;;7.80;99.90;;;;;;5045386;28;19924;-92
2023/10/19 08:35:53;;;;;;;;;;;7.50;99.90;;;;;;5047445;28;19923;-93
2023/10/19 08:38:19;;;;;;;;;;;8.20;99.90;;;;;;5029178;28;19923;-92
2023/10/19 08:40:45;;;;;;;;;;;7.90;99.90;;;;;;5027266;28;20295;-88
2023/10/19 08:43:13;;;;;;;;;;;7.00;99.90;;;;;;5025737;28;19920;-93
2023/10/19 08:45:39;;;;;;;;;;;6.80;99.90;;;;;;5031103;28;19923;-93
2023/10/19 08:48:05;;;;;;;;;;;7.70;99.90;;;;;;5044540;28;20302;-95
2023/10/19 08:50:32;;;;;;;;;;;7.80;99.90;;;;;;5048209;28;20014;-94
2023/10/19 08:52:59;;;;;;;;;;;7.80;99.90;;;;;;5035256;28;19928;-93
2023/10/19 08:55:25;;;;;;;;;;;7.70;99.90;;;;;;5042758;28;20405;-91
2023/10/19 08:57:51;;;;;;;;;;;7.90;99.90;;;;;;5041602;28;19916;-95
2023/10/19 09:00:18;;;;;;;;;;;7.60;99.90;;;;;;5041874;28;20371;-92
2023/10/19 09:02:47;;;;;;;;;;;7.70;99.90;;;;;;5042193;28;19971;-94
2023/10/19 09:05:22;;;;;;;;;;;8.00;99.90;;;;;;5043479;28;19920;-93
2023/10/19 09:07:54;;;;;;;;;;;8.00;99.90;;;;;;5041993;28;19952;-92
2023/10/19 09:10:25;;;;;;;;;;;7.80;99.90;;;;;;5021289;28;19956;-91
2023/10/19 09:13:01;;;;;;;;;;;8.00;99.90;;;;;;5055297;28;20318;-91
2023/10/19 09:15:28;;;;;;;;;;;7.70;99.90;;;;;;5051905;28;20367;-89
2023/10/19 09:17:54;;;;;;;;;;;7.80;99.90;;;;;;5041359;28;20003;-91
2023/10/19 09:20:27;;;;;;;;;;;7.80;99.90;;;;;;5019240;28;19966;-93
2023/10/19 09:22:54;;;;;;;;;;;7.80;99.90;;;;;;5038841;28;19924;-93
2023/10/19 09:25:21;;;;;;;;;;;7.90;99.90;;;;;;5008480;28;19920;-87
2023/10/19 09:27:46;;;;;;;;;;;8.00;99.90;;;;;;5036899;28;19916;-94
2023/10/19 09:30:18;;;;;;;;;;;8.10;99.90;;;;;;5037920;28;19928;-92
2023/10/19 09:32:47;;;;;;;;;;;8.00;99.90;;;;;;5021334;28;20379;-89
2023/10/19 09:35:15;;;;;;;;;;;7.90;99.90;;;;;;5021025;28;19916;-92
2023/10/19 09:37:44;;;;;;;;;;;7.80;99.90;;;;;;5021213;28;19916;-92
2023/10/19 09:40:13;;;;;;;;;;;8.00;99.90;;;;;;5037626;28;19917;-94
2023/10/19 09:42:48;;;;;;;;;;;8.00;99.90;;;;;;5036985;28;19921;-89
2023/10/19 09:45:17;;;;;;;;;;;9.00;99.90;;;;;;5020583;28;19958;-93
2023/10/19 09:47:46;;;;;;;;;;;7.80;99.90;;;;;;5038413;28;19917;-91
2023/10/19 09:50:12;;;;;;;;;;;7.80;99.90;;;;;;5016093;28;19917;-92
2023/10/19 09:52:38;;;;;;;;;;;7.80;99.90;;;;;;5037066;28;19924;-89
2023/10/19 09:55:04;;;;;;;;;;;8.10;99.90;;;;;;5037240;28;20429;-94
2023/10/19 09:57:34;;;;;;;;;;;8.30;99.90;;;;;;5033181;28;19917;-94
2023/10/19 10:00:23;;;;;;;;;;;8.10;99.90;;;;;;5045167;28;19975;-91
2023/10/19 10:02:48;;;;;;;;;;;8.10;99.90;;;;;;5038200;28;19925;-90
2023/10/19 10:05:33;;;;;;;;;;;8.10;99.90;;;;;;5020516;28;19979;-94
2023/10/19 10:08:34;;;;;;;;;;;8.10;99.90;;;;;;5020729;28;19928;-93
2023/10/19 10:11:12;;;;;;;;;;;8.00;99.90;;;;;;4977531;28;19971;-90
2023/10/19 10:13:38;;;;;;;;;;;8.00;99.90;;;;;;5019147;28;19939;-90
2023/10/19 10:16:04;;;;;;;;;;;8.20;99.90;;;;;;5042621;28;20352;-92
2023/10/19 10:18:31;;;;;;;;;;;8.10;99.90;;;;;;5050536;28;19986;-93
2023/10/19 10:21:16;;;;;;;;;;;8.10;99.90;;;;;;5053910;28;20432;-92
2023/10/19 10:23:47;;;;;;;;;;;7.20;99.90;;;;;;5024584;28;19924;-89
2023/10/19 10:26:13;;;;;;;;;;;8.10;99.90;;;;;;5043304;28;20295;-94
2023/10/19 10:28:47;;;;;;;;;;;8.10;99.90;;;;;;5036983;28;19965;-91
2023/10/19 10:31:13;;;;;;;;;;;8.10;99.90;;;;;;5036163;28;19963;-90
2023/10/19 10:33:40;;;;;;;;;;;8.30;99.90;;;;;;5037520;28;20326;-92
2023/10/19 10:36:06;;;;;;;;;;;8.00;99.90;;;;;;5009150;28;19939;-91
2023/10/19 10:38:35;;;;;;;;;;;8.20;99.90;;;;;;5020145;28;19923;-89
2023/10/19 10:41:01;;;;;;;;;;;8.20;99.90;;;;;;5026586;28;19938;-94
2023/10/19 10:43:27;;;;;;;;;;;8.50;99.90;;;;;;5006429;28;19968;-89
2023/10/19 10:46:03;;;;;;;;;;;8.30;99.90;;;;;;5010210;28;19916;-91
2023/10/19 10:48:29;;;;;;;;;;;8.50;99.90;;;;;;5019865;28;19923;-94
2023/10/19 10:50:55;;;;;;;;;;;8.30;99.90;;;;;;5018458;28;20010;-92
2023/10/19 10:53:24;;;;;;;;;;;8.30;99.90;;;;;;5007248;28;20419;-93
2023/10/19 10:55:50;;;;;;;;;;;8.50;99.90;;;;;;5026322;28;20376;-88
2023/10/19 10:58:16;;;;;;;;;;;8.40;99.90;;;;;;5034987;28;19963;-93
2023/10/19 11:00:51;;;;;;;;;;;7.30;99.90;;;;;;5020739;28;19996;-93
2023/10/19 11:03:17;;;;;;;;;;;9.10;99.90;;;;;;5027373;28;19924;-93
2023/10/19 11:05:45;;;;;;;;;;;8.20;99.90;;;;;;5029392;28;20360;-94
2023/10/19 11:08:20;;;;;;;;;;;8.40;99.90;;;;;;5020623;28;19923;-94
2023/10/19 11:10:47;;;;;;;;;;;8.30;99.90;;;;;;5019232;28;19924;-92
2023/10/19 11:13:13;;;;;;;;;;;8.20;99.90;;;;;;5012862;28;19920;-89
2023/10/19 11:15:47;;;;;;;;;;;8.10;99.90;;;;;;5004928;28;19921;-92
2023/10/19 11:18:28;;;;;;;;;;;8.80;99.90;;;;;;5019811;28;19967;-92
2023/10/19 11:20:59;;;;;;;;;;;7.60;99.90;;;;;;5020966;28;19917;-94
2023/10/19 11:23:35;;;;;;;;;;;8.50;99.90;;;;;;5019686;28;19920;-92
2023/10/19 11:26:02;;;;;;;;;;;8.40;99.90;;;;;;5015623;28;19921;-94
2023/10/19 11:28:29;;;;;;;;;;;8.40;99.90;;;;;;5016624;28;19917;-94
2023/10/19 11:31:09;;;;;;;;;;;8.30;99.90;;;;;;5020601;28;19962;-90
2023/10/19 11:33:36;;;;;;;;;;;8.20;99.90;;;;;;5020350;28;19921;-96
2023/10/19 11:36:02;;;;;;;;;;;7.40;99.90;;;;;;5019284;28;20026;-91
2023/10/19 11:38:28;;;;;;;;;;;8.20;99.90;;;;;;5020366;28;19917;-92
2023/10/19 11:40:57;;;;;;;;;;;8.50;99.90;;;;;;5019737;28;19917;-92
2023/10/19 11:43:23;;;;;;;;;;;10.10;99.90;;;;;;5020376;28;19972;-94
2023/10/19 11:45:49;;;;;;;;;;;8.50;99.90;;;;;;5003376;28;19939;-93
2023/10/19 11:48:15;;;;;;;;;;;7.10;99.90;;;;;;5022961;28;19928;-90
2023/10/19 11:50:41;;;;;;;;;;;8.20;99.90;;;;;;5019549;28;19995;-93
2023/10/19 11:53:09;;;;;;;;;;;8.20;99.90;;;;;;5019855;28;20420;-89
2023/10/19 11:55:35;;;;;;;;;;;8.10;99.90;;;;;;5019620;28;19999;-92
2023/10/19 11:58:01;;;;;;;;;;;8.20;99.90;;;;;;5024436;28;20011;-92
2023/10/19 12:00:33;;;;;;;;;;;8.30;99.90;;;;;;5046978;28;19923;-91
2023/10/19 12:02:59;;;;;;;;;;;8.10;99.90;;;;;;5034538;28;19921;-94
2023/10/19 12:05:25;;;;;;;;;;;8.20;99.90;;;;;;5010181;28;19924;-91
2023/10/19 12:07:56;;;;;;;;;;;8.10;99.90;;;;;;5033797;28;19923;-90
2023/10/19 12:10:29;;;;;;;;;;;7.90;99.90;;;;;;5017665;28;20536;-92
2023/10/19 12:12:56;;;;;;;;;;;8.30;99.90;;;;;;5001508;28;19924;-91
2023/10/19 12:15:22;;;;;;;;;;;8.10;99.90;;;;;;5027198;28;19990;-91
2023/10/19 12:17:50;;;;;;;;;;;8.40;99.90;;;;;;5018534;28;19924;-90
2023/10/19 12:20:16;;;;;;;;;;;8.40;99.90;;;;;;5018847;28;19923;-90
2023/10/19 12:22:42;;;;;;;;;;;8.20;99.90;;;;;;5029270;28;19924;-92
2023/10/19 12:25:10;;;;;;;;;;;8.10;99.90;;;;;;5025537;28;20288;-91
2023/10/19 12:27:37;;;;;;;;;;;8.40;99.90;;;;;;5028601;28;19916;-92
2023/10/19 12:30:13;;;;;;;;;;;8.20;99.90;;;;;;5014737;28;19917;-93
2023/10/19 12:32:41;;;;;;;;;;;8.10;99.90;;;;;;5018595;28;20359;-92
2023/10/19 12:35:11;;;;;;;;;;;8.40;99.90;;;;;;5032593;28;19963;-92
2023/10/19 12:37:46;;;;;;;;;;;8.40;99.90;;;;;;5002843;28;19916;-91
2023/10/19 12:40:26;;;;;;;;;;;8.40;99.90;;;;;;5020659;28;19972;-90
2023/10/19 12:42:54;;;;;;;;;;;8.40;99.90;;;;;;5013561;28;19971;-90
2023/10/19 12:45:25;;;;;;;;;;;8.10;99.90;;;;;;5020464;28;20301;-93
2023/10/19 12:47:54;;;;;;;;;;;8.40;99.90;;;;;;5033181;28;19917;-92
2023/10/19 12:50:23;;;;;;;;;;;8.40;99.90;;;;;;5022158;28;19923;-93
2023/10/19 12:52:49;;;;;;;;;;;8.10;99.90;;;;;;5039514;28;19939;-91
2023/10/19 12:55:16;;;;;;;;;;;8.10;99.90;;;;;;5023025;28;19939;-91
2023/10/19 12:57:42;;;;;;;;;;;8.10;99.90;;;;;;5021992;28;19924;-93
2023/10/19 13:00:26;;;;;;;;;;;8.20;99.90;;;;;;5020433;28;20307;-94
2023/10/19 13:03:00;;;;;;;;;;;8.20;99.90;;;;;;5022112;28;19925;-89
2023/10/19 13:05:27;;;;;;;;;;;8.20;99.90;;;;;;5019225;28;20376;-93
2023/10/19 13:07:53;;;;;;;;;;;8.30;99.90;;;;;;5021797;28;20007;-91
2023/10/19 13:10:19;;;;;;;;;;;8.20;99.90;;;;;;5021968;28;19972;-94
2023/10/19 13:12:44;;;;;;;;;;;8.10;99.90;;;;;;5022216;28;19916;-92
2023/10/19 13:15:13;;;;;;;;;;;8.40;99.90;;;;;;5022246;28;19916;-90
2023/10/19 13:17:42;;;;;;;;;;;8.10;99.90;;;;;;5023703;28;19917;-94
2023/10/19 13:20:18;;;;;;;;;;;8.10;99.90;;;;;;5042862;28;20547;-93
2023/10/19 13:22:49;;;;;;;;;;;8.10;99.90;;;;;;5032953;28;19921;-91
2023/10/19 13:25:18;;;;;;;;;;;9.40;99.90;;;;;;5021489;28;20003;-90
2023/10/19 13:28:04;;;;;;;;;;;8.20;99.90;;;;;;4982067;28;19921;-93
2023/10/19 13:30:35;;;;;;;;;;;8.40;99.90;;;;;;5034782;28;20304;-90
2023/10/19 13:36:38;;;;;;;;;;;8.40;99.90;;;;;;5054362;28;19917;-90
2023/10/19 13:39:28;;;;;;;;;;;8.30;99.90;;;;;;5004599;28;19978;-93
2023/10/19 13:41:54;;;;;;;;;;;8.40;99.90;;;;;;5055397;28;19920;-91
2023/10/19 13:44:22;;;;;;;;;;;8.50;99.90;;;;;;5022547;28;19926;-92
2023/10/19 13:46:54;;;;;;;;;;;8.40;99.90;;;;;;5011433;28;19920;-96
2023/10/19 13:49:55;;;;;;;;;;;8.20;99.90;;;;;;5016586;28;19920;-92
2023/10/19 13:53:10;;;;;;;;;;;8.20;99.90;;;;;;5017790;28;19917;-93
2023/10/19 13:55:38;;;;;;;;;;;7.60;99.90;;;;;;4997144;28;19932;-91
2023/10/19 13:58:28;;;;;;;;;;;;;;;;;;;;;
2023/10/19 14:01:29;;;;;;;;;;;8.30;99.90;;;;;;5017134;28;20454;-93
2023/10/19 14:04:03;;;;;;;;;;;8.50;99.90;;;;;;5013318;28;19971;-93
2023/10/19 14:06:43;;;;;;;;;;;8.20;99.90;;;;;;5008856;28;20282;-95
2023/10/19 14:12:31;;;;;;;;;;;8.20;99.90;;;;;;5016001;28;19945;-92
2023/10/19 14:14:57;;;;;;;;;;;8.30;99.90;;;;;;5013517;28;19916;-90
2023/10/19 14:17:29;;;;;;;;;;;8.40;99.90;;;;;;5010310;28;19924;-91
2023/10/19 14:20:05;;;;;;;;;;;8.20;99.90;;;;;;4998420;28;20013;-90
2023/10/19 14:22:55;;;;;;;;;;;9.30;99.90;;;;;;5011202;28;19921;-90
2023/10/19 14:32:28;;;;;;;;;;;8.40;99.90;;;;;;5035823;28;19974;-92
2023/10/19 14:35:11;;;;;;;;;;;8.40;99.90;;;;;;5057716;28;19916;-93
2023/10/19 14:37:45;;;;;;;;;;;8.00;99.90;;;;;;5025882;28;20343;-92
2023/10/19 14:40:11;;;;;;;;;;;8.40;99.90;;;;;;5028650;28;20371;-91
2023/10/19 14:42:38;;;;;;;;;;;8.40;99.90;;;;;;5020026;28;19921;-94
2023/10/19 14:45:11;;;;;;;;;;;9.20;99.90;;;;;;5030508;28;19961;-91
2023/10/19 14:47:40;;;;;;;;;;;8.40;99.90;;;;;;5036100;28;19995;-91
2023/10/19 14:50:08;;;;;;;;;;;8.30;99.90;;;;;;5011136;28;19921;-93
2023/10/19 14:52:34;;;;;;;;;;;8.30;99.90;;;;;;5023790;28;20359;-94
2023/10/19 14:55:00;;;;;;;;;;;8.30;99.90;;;;;;5015804;28;19917;-94
2023/10/19 14:57:28;;;;;;;;;;;8.30;99.90;;;;;;5037294;28;19937;-94